الصفحة الرئيسية
METAR-TAF:

METAR-TAF

مطار :

Tokushima, اليابان

دائرة عرض: 34-08N, خط طول: 134-37E, ارتفاع: 8 متر

مراقبة الطقس الحالي

تاريخ ووقت الإصدار 1ساعة و 0 دقيقة قبل الساعة 19:00UTC
ريح 11 عقدة من الجنوب/الجنوب الشرقي
درجة الحرارة 22°درجة مئوية
الرطوبة 88%
ضغط 1007 hPa
الرؤية 10 كم أو أكثر
غيوم قليلة على ارتفاع 3000 قدم
غيوم مفككة

METAR: RJOS 141900Z 16011KT 9999 FEW030 BKN/// 22/20 Q1007

زمن: 05:00 (20:00 UTC)


TAF: مفقودة

أرصاد الطقس والتوقعات من أكثر من 4000 مطار (تقارير الطقس للمطار METAR والتنبؤ بالطقس بالمطارTAF).

المحطات المتاحة هي النقط الصفراء والحمراء على الخريطة.

حرك المؤشر فوق النقطة لمعرفة اسم المحطة.

ثم انقر لمعرفة أرصاد وتوقعات الطقس.

لتغيير الخارطة: اضغط على الأزرار الخضراء مع رمز الصليب الأسود للتكبير. على الزر الأخضر مع شرطة للتصغير، أو على الأسهم الخضراء للخرائط المجاورة.


METAR-TAF: